DAUG/GHA METAR and TAF weather

Enter ICAO airport designator
Station Type Date Time Source
DAUG METAR 2020/07/10 18:00 UTC NOAA

DAUG 101800Z 11012KT CAVOK 39/03 Q1013


Station Type Date Time Source
DAUG Decoded METAR 2020/07/10 18:00 UTC NOAA

Ghardaia, Algeria (DAUG) 32-23N 003-49E 450M
Jul 10, 2020 - 02:00 PM EDT / 2020.07.10 1800 UTC
Wind: from the ESE (110 degrees) at 14 MPH (12 KT):0
Visibility: greater than 7 mile(s):0
Temperature: 102 F (39 C)
Dew Point: 37 F (3 C)
Relative Humidity: 10%
Pressure (altimeter): 29.91 in. Hg (1013 hPa)
ob: DAUG 101800Z 11012KT CAVOK 39/03 Q1013
cycle: 18

Station Type Date Time Source
DAUG TAF 2020/07/10 18:33 UTC NOAA

TAF DAUG 101700Z 1018/1118 10008KT CAVOK

Example: see airport list